Anahola, Hawaii
Current Conditions -  °F | °C
As of 12:53 AM on Saturday 25 Oct 2014 (Local Time) from PHLI Reporting Station
Scattered Clouds Scattered Clouds  
Wind Chill: 79°   Ceiling: Unl
Heat Index: 82°   Visibility: 10mi
Dew Point: 70°   Wind: 10mph
Humidity: 74%   Direction: 80°E
Pressure: 30.05"   Gusts: NA
Location:  22.14°N, 159.31°W
Report Text: PHLI 251053Z 08009KT 10SM FEW023 SCT032 26/21 A3005 RMK AO2 SLP172 T02610211
Loading
Personal Weather Stations






























Interactive Weather Map
Tropical Storm Tracking
New forecast layout! Learn more

10-Day Weather Forecast

Advertisements
Track Severe Weather on mobile